createdAt,value
2023-02-15T00:00:38.156Z,3.70
2023-02-15T00:01:41.066Z,3.70
2023-02-15T00:02:44.005Z,3.60
2023-02-15T00:03:46.028Z,3.70
2023-02-15T00:04:48.910Z,3.70
2023-02-15T00:05:50.868Z,3.70
2023-02-15T00:06:53.847Z,3.70
2023-02-15T00:07:55.764Z,3.80
2023-02-15T00:08:59.229Z,3.80
2023-02-15T00:10:01.250Z,3.70
2023-02-15T00:11:08.261Z,3.60
2023-02-15T00:12:11.239Z,3.70
2023-02-15T00:13:14.152Z,3.70
2023-02-15T00:14:17.914Z,3.60
2023-02-15T00:15:20.824Z,3.70
2023-02-15T00:16:24.124Z,3.70
2023-02-15T00:17:29.437Z,3.60
2023-02-15T00:18:31.810Z,3.60
2023-02-15T00:19:34.741Z,3.60
2023-02-15T00:20:36.730Z,3.70
2023-02-15T00:21:41.369Z,3.60
2023-02-15T00:22:43.304Z,3.70
2023-02-15T00:23:46.199Z,3.60
2023-02-15T00:24:48.246Z,3.60
2023-02-15T00:25:51.164Z,3.60
2023-02-15T00:26:53.908Z,3.50
2023-02-15T00:27:56.864Z,3.60
2023-02-15T00:28:59.836Z,3.60
2023-02-15T00:30:02.968Z,3.60
2023-02-15T00:31:06.412Z,3.60
2023-02-15T00:32:10.773Z,3.70
2023-02-15T00:33:12.836Z,3.60
2023-02-15T00:34:17.974Z,3.60
2023-02-15T00:35:19.967Z,3.70
2023-02-15T00:36:22.875Z,3.70
2023-02-15T00:37:25.102Z,3.60
2023-02-15T00:38:28.904Z,3.60
2023-02-15T00:39:31.913Z,3.60
2023-02-15T00:40:33.818Z,3.60
2023-02-15T00:41:37.387Z,3.70
2023-02-15T00:42:39.328Z,3.70
2023-02-15T00:43:42.229Z,3.70
2023-02-15T00:44:44.149Z,3.70
2023-02-15T00:45:47.531Z,3.70
2023-02-15T00:46:49.496Z,3.60
2023-02-15T00:47:53.782Z,3.70
2023-02-15T00:48:56.675Z,3.70
2023-02-15T00:49:59.705Z,3.70
2023-02-15T00:51:02.391Z,3.70
2023-02-15T00:52:05.664Z,3.60
2023-02-15T00:53:07.884Z,3.60
2023-02-15T00:54:10.807Z,3.60
2023-02-15T00:55:12.820Z,3.70
2023-02-15T00:56:15.750Z,3.70
2023-02-15T00:57:17.680Z,3.80
2023-02-15T00:58:20.662Z,3.80
2023-02-15T00:59:23.626Z,3.70
2023-02-15T01:00:25.606Z,3.70
2023-02-15T01:01:28.625Z,3.70
2023-02-15T01:02:30.605Z,3.80
2023-02-15T01:03:35.468Z,3.70
2023-02-15T01:04:37.552Z,3.70
2023-02-15T01:05:40.552Z,3.70
2023-02-15T01:06:42.472Z,3.60
2023-02-15T01:07:45.397Z,3.50
2023-02-15T01:08:47.589Z,3.60
2023-02-15T01:09:50.587Z,3.60
2023-02-15T01:10:52.708Z,3.60
2023-02-15T01:11:55.592Z,3.60
2023-02-15T01:12:58.358Z,3.60
2023-02-15T01:14:01.329Z,3.70
2023-02-15T01:15:03.467Z,3.70
2023-02-15T01:16:06.988Z,3.70
2023-02-15T01:17:08.915Z,3.70
2023-02-15T01:18:12.212Z,3.70
2023-02-15T01:19:16.028Z,3.70
2023-02-15T01:20:19.328Z,3.70
2023-02-15T01:21:23.627Z,3.70
2023-02-15T01:22:26.778Z,3.70
2023-02-15T01:23:28.705Z,3.70
2023-02-15T01:24:31.602Z,3.80
2023-02-15T01:25:35.075Z,3.70
2023-02-15T01:26:38.204Z,3.70
2023-02-15T01:27:40.134Z,3.80
2023-02-15T01:28:43.560Z,3.80
2023-02-15T01:29:45.496Z,3.80
2023-02-15T01:30:48.492Z,3.80
2023-02-15T01:31:50.813Z,3.90
2023-02-15T01:32:53.843Z,3.80
2023-02-15T01:33:55.850Z,3.70
2023-02-15T01:35:00.196Z,3.70
2023-02-15T01:36:03.293Z,3.70
2023-02-15T01:37:06.426Z,3.70
2023-02-15T01:38:08.400Z,3.70
2023-02-15T01:39:11.438Z,3.70
2023-02-15T01:40:16.320Z,3.60
2023-02-15T01:41:23.969Z,3.60
2023-02-15T01:42:26.977Z,3.70
2023-02-15T01:43:42.633Z,3.60
2023-02-15T01:44:53.802Z,3.60
2023-02-15T01:45:55.699Z,3.60
2023-02-15T01:46:58.689Z,3.60
2023-02-15T01:48:05.262Z,3.60
2023-02-15T01:49:14.935Z,3.60
2023-02-15T01:50:22.000Z,3.60
2023-02-15T01:51:29.627Z,3.60
2023-02-15T01:52:31.699Z,3.50
2023-02-15T01:53:37.967Z,3.50
2023-02-15T01:54:41.771Z,3.50
2023-02-15T01:55:50.464Z,3.50
2023-02-15T01:56:53.687Z,3.60
2023-02-15T01:57:56.819Z,3.60
2023-02-15T01:59:03.805Z,3.70
2023-02-15T02:00:10.284Z,3.70
2023-02-15T02:01:12.416Z,3.60
2023-02-15T02:02:16.781Z,3.70
2023-02-15T02:03:24.984Z,3.60
2023-02-15T02:04:34.422Z,3.60
2023-02-15T02:05:39.859Z,3.70
2023-02-15T02:06:43.236Z,3.70
2023-02-15T02:07:47.704Z,3.60
2023-02-15T02:08:51.135Z,3.60
2023-02-15T02:09:53.538Z,3.70
2023-02-15T02:10:56.452Z,3.60
2023-02-15T02:11:58.575Z,3.50
2023-02-15T02:13:04.847Z,3.50
2023-02-15T02:14:06.867Z,3.50
2023-02-15T02:15:10.677Z,3.40
2023-02-15T02:16:21.321Z,3.40
2023-02-15T02:17:33.636Z,3.50
2023-02-15T02:18:47.862Z,3.50
2023-02-15T02:20:10.414Z,3.50
2023-02-15T02:21:45.654Z,3.50
2023-02-15T02:23:31.664Z,3.50
2023-02-15T02:24:55.258Z,3.40
2023-02-15T02:26:29.307Z,3.40
2023-02-15T02:27:40.892Z,3.40
2023-02-15T02:29:30.737Z,3.30
2023-02-15T02:31:05.294Z,3.40
2023-02-15T02:32:36.827Z,3.30
2023-02-15T02:33:56.112Z,3.20
2023-02-15T02:35:03.150Z,3.20
2023-02-15T02:36:16.755Z,3.30
2023-02-15T02:37:24.663Z,3.30
2023-02-15T02:38:34.688Z,3.40
2023-02-15T02:39:50.543Z,3.40
2023-02-15T02:41:03.056Z,3.50
2023-02-15T02:42:12.535Z,3.50
2023-02-15T02:43:20.263Z,3.50
2023-02-15T02:44:28.376Z,3.60
2023-02-15T02:45:38.418Z,3.50
2023-02-15T02:46:49.097Z,3.40
2023-02-15T02:47:56.723Z,3.50
2023-02-15T02:49:01.232Z,3.50
2023-02-15T02:50:06.816Z,3.40
2023-02-15T02:51:09.737Z,3.40
2023-02-15T02:52:36.707Z,3.40
2023-02-15T02:53:39.966Z,3.40
2023-02-15T02:54:42.019Z,3.50
2023-02-15T02:55:48.011Z,3.50
2023-02-15T02:56:52.400Z,3.50
2023-02-15T02:57:59.611Z,3.50
2023-02-15T02:59:04.835Z,3.40
2023-02-15T03:00:10.121Z,3.40
2023-02-15T03:01:16.604Z,3.50
2023-02-15T03:02:23.623Z,3.50
2023-02-15T03:03:31.088Z,3.50
2023-02-15T03:04:39.596Z,3.50
2023-02-15T03:05:45.621Z,3.50
2023-02-15T03:06:52.920Z,3.50
2023-02-15T03:07:57.898Z,3.50
2023-02-15T03:09:05.562Z,3.40
2023-02-15T03:10:08.976Z,3.40
2023-02-15T03:11:13.923Z,3.40
2023-02-15T03:12:20.432Z,3.40
2023-02-15T03:13:24.344Z,3.40
2023-02-15T03:14:26.386Z,3.40
2023-02-15T03:15:53.556Z,3.40
2023-02-15T03:16:55.918Z,3.40
2023-02-15T03:18:04.643Z,3.40
2023-02-15T03:19:09.772Z,3.30
2023-02-15T03:20:20.635Z,3.30
2023-02-15T03:21:26.291Z,3.30
2023-02-15T03:22:33.650Z,3.30
2023-02-15T03:23:38.506Z,3.30
2023-02-15T03:24:46.768Z,3.30
2023-02-15T03:25:53.774Z,3.30
2023-02-15T03:26:57.982Z,3.30
2023-02-15T03:28:04.216Z,3.30
2023-02-15T03:29:08.810Z,3.30
2023-02-15T03:30:13.031Z,3.30
2023-02-15T03:31:18.366Z,3.30
2023-02-15T03:32:21.977Z,3.30
2023-02-15T03:33:27.034Z,3.30
2023-02-15T03:34:30.278Z,3.30
2023-02-15T03:35:40.213Z,3.30
2023-02-15T03:36:48.537Z,3.40
2023-02-15T03:37:55.908Z,3.40
2023-02-15T03:39:03.477Z,3.50
2023-02-15T03:40:27.200Z,3.40
2023-02-15T03:41:35.960Z,3.40
2023-02-15T03:42:41.519Z,3.50
2023-02-15T03:43:50.500Z,3.40
2023-02-15T03:44:59.778Z,3.30
2023-02-15T03:46:09.251Z,3.30
2023-02-15T03:47:17.858Z,3.30
2023-02-15T03:48:20.731Z,3.30
2023-02-15T03:49:27.038Z,3.40
2023-02-15T03:50:49.976Z,3.40
2023-02-15T03:51:55.828Z,3.40
2023-02-15T03:53:00.912Z,3.00
2023-02-15T03:54:05.115Z,2.40
2023-02-15T03:55:08.494Z,2.60
2023-02-15T03:56:10.451Z,2.80
2023-02-15T03:57:34.544Z,2.90
2023-02-15T03:58:55.063Z,3.00
2023-02-15T04:00:16.992Z,3.00
2023-02-15T04:01:44.930Z,3.00
2023-02-15T04:03:01.151Z,3.10
2023-02-15T04:04:12.620Z,3.10
2023-02-15T04:05:15.760Z,3.10
2023-02-15T04:06:17.679Z,3.00
2023-02-15T04:07:21.940Z,2.70
2023-02-15T04:08:44.159Z,2.80
2023-02-15T04:10:04.420Z,2.90
2023-02-15T04:11:06.322Z,3.00
2023-02-15T04:12:09.635Z,3.00
2023-02-15T04:13:11.687Z,3.10
2023-02-15T04:14:28.551Z,3.10
2023-02-15T04:15:48.732Z,3.10
2023-02-15T04:16:51.853Z,3.20
2023-02-15T04:17:53.920Z,3.20
2023-02-15T04:19:14.150Z,3.30
2023-02-15T04:20:35.114Z,3.10
2023-02-15T04:21:55.471Z,3.10
2023-02-15T04:23:16.895Z,3.10
2023-02-15T04:24:37.358Z,3.10
2023-02-15T04:25:40.330Z,3.10
2023-02-15T04:26:42.325Z,3.20
2023-02-15T04:27:47.706Z,3.10
2023-02-15T04:28:49.644Z,3.20
2023-02-15T04:29:52.621Z,3.20
2023-02-15T04:30:54.570Z,3.20
2023-02-15T04:32:00.014Z,3.00
2023-02-15T04:33:02.000Z,2.80
2023-02-15T04:34:04.992Z,2.70
2023-02-15T04:35:08.079Z,2.60
2023-02-15T04:36:11.044Z,2.50
2023-02-15T04:37:13.969Z,2.50
2023-02-15T04:38:17.317Z,2.40
2023-02-15T04:39:21.353Z,2.50
2023-02-15T04:40:23.322Z,2.50
2023-02-15T04:41:26.276Z,2.30
2023-02-15T04:42:28.845Z,2.20
2023-02-15T04:43:31.726Z,2.30
2023-02-15T04:44:33.630Z,2.20
2023-02-15T04:45:36.555Z,2.20
2023-02-15T04:46:38.808Z,2.30
2023-02-15T04:47:41.742Z,2.30
2023-02-15T04:48:44.590Z,2.20
2023-02-15T04:49:47.602Z,2.10
2023-02-15T04:50:50.540Z,2.20
2023-02-15T04:51:52.478Z,2.30
2023-02-15T04:52:55.431Z,2.30
2023-02-15T04:53:58.705Z,2.20
2023-02-15T04:55:01.694Z,2.10
2023-02-15T04:56:04.042Z,2.10
2023-02-15T04:57:07.574Z,2.10
2023-02-15T04:58:09.489Z,2.10
2023-02-15T04:59:12.618Z,2.10
2023-02-15T05:00:16.043Z,3.20
2023-02-15T05:01:18.884Z,2.00
2023-02-15T05:02:21.919Z,2.00
2023-02-15T05:03:24.165Z,2.00
2023-02-15T05:04:27.146Z,2.00
2023-02-15T05:05:29.155Z,2.10
2023-02-15T05:06:32.309Z,2.10
2023-02-15T05:07:34.219Z,2.00
2023-02-15T05:08:37.120Z,2.10
2023-02-15T05:09:40.371Z,2.10
2023-02-15T05:10:43.304Z,2.10
2023-02-15T05:11:45.331Z,2.30
2023-02-15T05:12:48.398Z,2.50
2023-02-15T05:13:50.374Z,2.60
2023-02-15T05:14:53.310Z,2.70
2023-02-15T05:15:55.557Z,2.70
2023-02-15T05:17:01.867Z,2.80
2023-02-15T05:18:04.040Z,2.80
2023-02-15T05:19:06.974Z,2.90
2023-02-15T05:20:09.676Z,2.80
2023-02-15T05:21:14.505Z,2.90
2023-02-15T05:22:16.450Z,2.90
2023-02-15T05:23:19.379Z,2.90
2023-02-15T05:24:44.961Z,3.00
2023-02-15T05:26:10.690Z,3.00
2023-02-15T05:27:31.612Z,2.90
2023-02-15T05:28:34.575Z,2.90
2023-02-15T05:29:36.559Z,2.90
2023-02-15T05:30:40.726Z,3.00
2023-02-15T05:31:45.307Z,3.00
2023-02-15T05:32:48.480Z,3.00
2023-02-15T05:33:50.424Z,3.00
2023-02-15T05:34:53.391Z,3.00
2023-02-15T05:35:55.335Z,3.00
2023-02-15T05:36:58.276Z,3.00
2023-02-15T05:38:00.227Z,3.10
2023-02-15T05:39:05.075Z,3.20
2023-02-15T05:40:08.252Z,3.30
2023-02-15T05:41:13.482Z,3.20
2023-02-15T05:42:15.406Z,3.20
2023-02-15T05:43:18.394Z,3.20
2023-02-15T05:44:20.339Z,3.10
2023-02-15T05:45:23.248Z,3.00
2023-02-15T05:46:26.187Z,3.00
2023-02-15T05:47:28.130Z,2.90
2023-02-15T05:48:31.487Z,3.00
2023-02-15T05:49:33.495Z,3.00
2023-02-15T05:50:36.433Z,3.00
2023-02-15T05:51:38.332Z,3.00
2023-02-15T05:52:41.467Z,3.00
2023-02-15T05:53:43.385Z,3.10
2023-02-15T05:54:46.278Z,3.10
2023-02-15T05:55:48.220Z,3.10
2023-02-15T05:56:52.561Z,3.10
2023-02-15T05:57:55.448Z,3.00
2023-02-15T05:58:57.413Z,3.10
2023-02-15T06:00:00.405Z,3.00
2023-02-15T06:01:09.566Z,3.10
2023-02-15T06:02:12.519Z,3.10
2023-02-15T06:03:14.688Z,3.10
2023-02-15T06:04:17.658Z,3.00
2023-02-15T06:05:19.590Z,3.00
2023-02-15T06:06:22.894Z,3.10
2023-02-15T06:07:24.917Z,3.10
2023-02-15T06:08:27.949Z,3.10
2023-02-15T06:09:30.996Z,3.10
2023-02-15T06:10:32.957Z,3.10
2023-02-15T06:11:35.860Z,3.10
2023-02-15T06:12:40.283Z,3.10
2023-02-15T06:13:42.383Z,3.10
2023-02-15T06:14:45.337Z,3.10
2023-02-15T06:15:47.318Z,3.10
2023-02-15T06:16:50.234Z,3.10
2023-02-15T06:17:52.539Z,3.20
2023-02-15T06:18:55.490Z,3.20
2023-02-15T06:19:59.451Z,3.30
2023-02-15T06:21:02.433Z,3.30
2023-02-15T06:22:07.199Z,3.20
2023-02-15T06:23:09.235Z,3.20
2023-02-15T06:24:12.311Z,3.10
2023-02-15T06:25:14.406Z,3.20
2023-02-15T06:26:17.326Z,3.10
2023-02-15T06:27:19.260Z,3.20
2023-02-15T06:28:23.551Z,3.20
2023-02-15T06:29:25.571Z,3.10
2023-02-15T06:30:30.986Z,3.10
2023-02-15T06:31:33.096Z,3.10
2023-02-15T06:32:36.412Z,3.20
2023-02-15T06:33:39.191Z,3.20
2023-02-15T06:34:42.139Z,3.20
2023-02-15T06:35:44.266Z,3.20
2023-02-15T06:36:47.212Z,3.20
2023-02-15T06:37:49.704Z,3.20
2023-02-15T06:38:52.579Z,3.20
2023-02-15T06:39:54.570Z,3.20
2023-02-15T06:40:57.669Z,3.10
2023-02-15T06:41:59.624Z,3.10
2023-02-15T06:43:02.536Z,3.10
2023-02-15T06:44:06.029Z,3.20
2023-02-15T06:45:10.027Z,3.10
2023-02-15T06:46:11.973Z,3.20
2023-02-15T06:47:15.024Z,3.20
2023-02-15T06:48:17.015Z,3.20
2023-02-15T06:49:19.893Z,3.20
2023-02-15T06:50:21.782Z,3.20
2023-02-15T06:51:24.842Z,3.10
2023-02-15T06:52:26.869Z,3.10
2023-02-15T06:53:29.820Z,3.20
2023-02-15T06:54:31.755Z,3.10
2023-02-15T06:55:34.983Z,3.00
2023-02-15T06:56:37.923Z,2.90
2023-02-15T06:57:39.826Z,2.90
2023-02-15T06:58:43.542Z,2.80
2023-02-15T06:59:46.871Z,3.00
2023-02-15T07:00:50.565Z,3.00
2023-02-15T07:01:52.610Z,3.20
2023-02-15T07:02:58.507Z,3.20
2023-02-15T07:04:00.404Z,3.20
2023-02-15T07:05:03.705Z,3.20
2023-02-15T07:06:09.220Z,3.20
2023-02-15T07:07:13.661Z,3.20
2023-02-15T07:08:15.694Z,3.30
2023-02-15T07:09:18.610Z,3.30
2023-02-15T07:10:20.547Z,3.20
2023-02-15T07:11:40.991Z,3.30
2023-02-15T07:12:45.156Z,3.20
2023-02-15T07:13:47.449Z,3.20
2023-02-15T07:14:51.687Z,3.10
2023-02-15T07:15:53.625Z,3.30
2023-02-15T07:16:56.518Z,3.30
2023-02-15T07:18:00.252Z,3.40
2023-02-15T07:19:02.773Z,3.30
2023-02-15T07:20:08.712Z,3.40
2023-02-15T07:21:11.698Z,3.30
2023-02-15T07:22:13.602Z,3.40
2023-02-15T07:23:16.581Z,3.40
2023-02-15T07:24:18.605Z,3.40
2023-02-15T07:25:21.918Z,3.30
2023-02-15T07:26:24.848Z,3.20
2023-02-15T07:27:27.734Z,3.30
2023-02-15T07:28:30.679Z,3.20
2023-02-15T07:29:33.614Z,3.30
2023-02-15T07:30:37.904Z,3.30
2023-02-15T07:31:40.813Z,3.20
2023-02-15T07:32:57.779Z,3.30
2023-02-15T07:34:00.705Z,3.20
2023-02-15T07:35:03.785Z,3.20
2023-02-15T07:36:07.945Z,3.20
2023-02-15T07:37:10.274Z,3.20
2023-02-15T07:38:13.267Z,3.30
2023-02-15T07:39:16.197Z,3.30
2023-02-15T07:40:21.075Z,3.30
2023-02-15T07:41:24.503Z,3.30
2023-02-15T07:42:27.432Z,3.20
2023-02-15T07:43:31.220Z,3.10
2023-02-15T07:44:33.219Z,3.10
2023-02-15T07:45:37.531Z,3.10
2023-02-15T07:46:39.509Z,3.20
2023-02-15T07:47:42.460Z,3.20
2023-02-15T07:48:46.340Z,3.20
2023-02-15T07:49:50.349Z,3.20
2023-02-15T07:50:53.314Z,3.20
2023-02-15T07:51:56.334Z,3.30
2023-02-15T07:52:58.411Z,3.30
2023-02-15T07:54:01.317Z,3.30
2023-02-15T07:55:03.594Z,3.30
2023-02-15T07:56:09.023Z,3.30
2023-02-15T07:57:12.002Z,3.30
2023-02-15T07:58:13.997Z,3.30
2023-02-15T07:59:17.161Z,3.30
2023-02-15T08:00:22.389Z,3.30
2023-02-15T08:01:28.568Z,3.30
2023-02-15T08:02:31.233Z,3.30
2023-02-15T08:03:34.535Z,3.40
2023-02-15T08:04:37.527Z,3.40
2023-02-15T08:05:39.846Z,3.30
2023-02-15T08:06:43.211Z,3.30
2023-02-15T08:07:46.172Z,3.20
2023-02-15T08:08:48.291Z,3.30
2023-02-15T08:09:51.207Z,3.30
2023-02-15T08:11:11.795Z,3.40
2023-02-15T08:12:14.781Z,3.40
2023-02-15T08:13:16.706Z,3.40
2023-02-15T08:14:21.365Z,3.40
2023-02-15T08:15:23.358Z,3.40
2023-02-15T08:16:29.749Z,3.30
2023-02-15T08:17:32.727Z,3.40
2023-02-15T08:18:35.352Z,3.40
2023-02-15T08:19:38.355Z,3.40
2023-02-15T08:20:40.299Z,3.50
2023-02-15T08:21:44.906Z,3.40
2023-02-15T08:22:46.814Z,3.40
2023-02-15T08:23:50.207Z,3.40
2023-02-15T08:24:53.116Z,3.40
2023-02-15T08:25:55.015Z,3.30
2023-02-15T08:26:58.191Z,3.30
2023-02-15T08:28:00.149Z,2.90
2023-02-15T08:29:03.960Z,2.80
2023-02-15T08:30:08.611Z,2.30
2023-02-15T08:31:13.049Z,1.90
2023-02-15T08:32:17.414Z,1.30
2023-02-15T08:33:19.390Z,1.00
2023-02-15T08:34:23.076Z,1.20
2023-02-15T08:35:25.108Z,1.00
2023-02-15T08:36:30.895Z,1.00
2023-02-15T08:37:32.940Z,1.10
2023-02-15T08:38:36.568Z,1.00
2023-02-15T08:39:39.606Z,1.30
2023-02-15T08:40:41.576Z,1.40
2023-02-15T08:41:45.727Z,1.50
2023-02-15T08:42:47.640Z,1.50
2023-02-15T08:43:53.011Z,1.60
2023-02-15T08:44:56.286Z,1.80
2023-02-15T08:45:58.554Z,1.90
2023-02-15T08:47:07.172Z,2.00
2023-02-15T08:48:10.496Z,2.10
2023-02-15T08:49:15.631Z,2.20
2023-02-15T08:50:18.754Z,2.20
2023-02-15T08:51:23.600Z,2.20
2023-02-15T08:52:26.623Z,2.30
2023-02-15T08:53:28.542Z,2.20
2023-02-15T08:54:31.692Z,2.30
2023-02-15T08:55:34.639Z,2.30
2023-02-15T08:56:39.399Z,2.30
2023-02-15T08:57:45.849Z,2.20
2023-02-15T08:58:48.955Z,2.20
2023-02-15T08:59:51.892Z,2.30
2023-02-15T09:00:53.842Z,2.40
2023-02-15T09:01:57.293Z,2.40
2023-02-15T09:02:59.276Z,2.30
2023-02-15T09:04:06.232Z,2.30
2023-02-15T09:05:10.050Z,2.40
2023-02-15T09:06:12.420Z,2.40
2023-02-15T09:07:15.663Z,2.40
2023-02-15T09:08:17.643Z,2.40
2023-02-15T09:09:21.848Z,2.30
2023-02-15T09:10:23.854Z,2.30
2023-02-15T09:11:28.668Z,2.40
2023-02-15T09:12:31.592Z,3.80
2023-02-15T09:13:33.752Z,2.50
2023-02-15T09:14:37.562Z,2.50
2023-02-15T09:15:39.572Z,2.50
2023-02-15T09:16:45.801Z,2.40
2023-02-15T09:17:47.879Z,2.40
2023-02-15T09:18:51.607Z,2.40
2023-02-15T09:19:55.911Z,2.30
2023-02-15T09:20:58.851Z,2.20
2023-02-15T09:22:01.865Z,2.20
2023-02-15T09:23:05.196Z,2.20
2023-02-15T09:24:10.520Z,2.40
2023-02-15T09:25:14.525Z,2.60
2023-02-15T09:26:19.096Z,2.80
2023-02-15T09:27:22.042Z,2.90
2023-02-15T09:28:25.135Z,3.00
2023-02-15T09:29:28.062Z,4.10
2023-02-15T09:30:30.176Z,3.20
2023-02-15T09:31:35.796Z,3.30
2023-02-15T09:32:38.066Z,3.30
2023-02-15T09:33:42.306Z,3.20
2023-02-15T09:34:45.403Z,3.30
2023-02-15T09:35:49.740Z,3.30
2023-02-15T09:36:53.265Z,3.30
2023-02-15T09:37:56.205Z,3.20
2023-02-15T09:39:00.702Z,3.20
2023-02-15T09:40:03.726Z,3.20
2023-02-15T09:41:27.832Z,3.20
2023-02-15T09:43:06.591Z,3.20
2023-02-15T09:44:19.002Z,3.20
2023-02-15T09:45:42.274Z,3.30
2023-02-15T09:47:04.014Z,3.20
2023-02-15T09:48:28.545Z,3.30
2023-02-15T09:49:39.825Z,3.40
2023-02-15T09:50:51.419Z,3.40
2023-02-15T09:52:21.921Z,3.30
2023-02-15T09:53:38.563Z,3.20
2023-02-15T09:54:52.260Z,3.30
2023-02-15T09:56:03.451Z,3.30
2023-02-15T09:57:13.571Z,3.30
2023-02-15T09:58:25.339Z,3.40
2023-02-15T09:59:36.976Z,3.50
2023-02-15T10:00:50.379Z,3.30
2023-02-15T10:02:03.964Z,3.40
2023-02-15T10:03:21.938Z,3.50
2023-02-15T10:04:43.047Z,3.50
2023-02-15T10:06:00.770Z,3.50
2023-02-15T10:07:13.937Z,3.40
2023-02-15T10:08:32.461Z,3.50
2023-02-15T10:09:51.245Z,3.50
2023-02-15T10:11:25.050Z,3.60
2023-02-15T10:12:59.133Z,3.60
2023-02-15T10:14:29.922Z,3.70
2023-02-15T10:15:43.681Z,3.70
2023-02-15T10:16:57.091Z,3.70
2023-02-15T10:18:15.694Z,3.70
2023-02-15T10:19:28.741Z,3.50
2023-02-15T10:20:42.126Z,3.60
2023-02-15T10:21:58.649Z,3.70
2023-02-15T10:23:29.208Z,3.70
2023-02-15T10:24:51.813Z,3.80
2023-02-15T10:26:00.529Z,3.90
2023-02-15T10:27:10.235Z,3.90
2023-02-15T10:28:19.322Z,3.90
2023-02-15T10:29:32.147Z,3.90
2023-02-15T10:30:41.782Z,3.80
2023-02-15T10:31:52.036Z,3.80
2023-02-15T10:33:02.221Z,3.70
2023-02-15T10:34:17.212Z,3.80
2023-02-15T10:35:30.276Z,3.90
2023-02-15T10:36:52.184Z,4.00
2023-02-15T10:38:20.003Z,3.90
2023-02-15T10:39:29.726Z,4.00
2023-02-15T10:40:40.124Z,4.00
2023-02-15T10:41:49.904Z,4.10
2023-02-15T10:43:12.249Z,4.10
2023-02-15T10:44:27.978Z,4.00
2023-02-15T10:45:45.362Z,4.10
2023-02-15T10:47:15.266Z,4.20
2023-02-15T10:48:39.124Z,4.10
2023-02-15T10:50:03.447Z,4.00
2023-02-15T10:51:10.621Z,4.10
2023-02-15T10:52:28.704Z,4.10
2023-02-15T10:53:48.373Z,4.10
2023-02-15T10:55:04.232Z,4.10
2023-02-15T10:56:14.856Z,4.10
2023-02-15T10:57:26.490Z,4.10
2023-02-15T10:58:39.783Z,4.10
2023-02-15T10:59:57.876Z,4.10
2023-02-15T11:01:09.461Z,3.90
2023-02-15T11:02:18.742Z,3.90
2023-02-15T11:03:35.339Z,3.90
2023-02-15T11:04:53.427Z,3.90
2023-02-15T11:06:04.743Z,4.00
2023-02-15T11:07:14.583Z,3.70
2023-02-15T11:08:18.376Z,3.60
2023-02-15T11:09:24.033Z,3.50
2023-02-15T11:10:33.866Z,3.40
2023-02-15T11:11:41.445Z,3.20
2023-02-15T11:12:46.628Z,3.10
2023-02-15T11:13:53.120Z,3.10
2023-02-15T11:15:04.751Z,3.10
2023-02-15T11:16:11.986Z,3.10
2023-02-15T11:17:19.463Z,3.00
2023-02-15T11:18:28.289Z,3.00
2023-02-15T11:19:34.295Z,2.90
2023-02-15T11:20:43.567Z,2.90
2023-02-15T11:21:50.940Z,2.80
2023-02-15T11:22:55.482Z,2.80
2023-02-15T11:23:58.364Z,2.80
2023-02-15T11:25:02.613Z,2.80
2023-02-15T11:26:14.858Z,2.70
2023-02-15T11:27:22.549Z,2.70
2023-02-15T11:28:32.196Z,2.70
2023-02-15T11:29:39.052Z,2.80
2023-02-15T11:30:45.891Z,2.80
2023-02-15T11:31:52.129Z,2.70
2023-02-15T11:32:59.627Z,2.70
2023-02-15T11:34:06.712Z,2.70
2023-02-15T11:35:23.468Z,2.70
2023-02-15T11:36:29.022Z,1.90
2023-02-15T11:37:38.800Z,1.20
2023-02-15T11:38:44.308Z,0.90
2023-02-15T11:39:52.479Z,0.70
2023-02-15T11:40:59.675Z,0.60
2023-02-15T11:42:11.890Z,0.50
2023-02-15T11:43:20.763Z,0.40
2023-02-15T11:44:28.233Z,0.40
2023-02-15T11:45:32.391Z,0.50
2023-02-15T11:46:36.731Z,0.40
2023-02-15T11:47:39.739Z,0.40
2023-02-15T11:48:43.199Z,0.30
2023-02-15T11:49:48.213Z,0.30
2023-02-15T11:50:50.159Z,0.50
2023-02-15T11:51:54.502Z,0.40
2023-02-15T11:53:01.751Z,0.20
2023-02-15T11:54:04.425Z,0.30
2023-02-15T11:55:16.523Z,0.40
2023-02-15T11:56:22.158Z,0.30
2023-02-15T11:57:34.056Z,0.20
2023-02-15T11:58:42.206Z,0.20
2023-02-15T11:59:51.151Z,0.10
2023-02-15T12:00:59.077Z,0.10
2023-02-15T12:02:01.040Z,0.30
2023-02-15T12:03:11.727Z,0.30
2023-02-15T12:04:24.762Z,0.40
2023-02-15T12:05:28.543Z,0.40
2023-02-15T12:06:35.047Z,0.40
2023-02-15T12:07:43.104Z,0.40
2023-02-15T12:08:51.474Z,0.30
2023-02-15T12:10:06.361Z,0.40
2023-02-15T12:11:13.317Z,0.40
2023-02-15T12:12:25.035Z,0.50
2023-02-15T12:13:29.303Z,0.50
2023-02-15T12:14:49.401Z,0.50
2023-02-15T12:15:55.390Z,0.50
2023-02-15T12:16:58.953Z,0.50
2023-02-15T12:18:01.235Z,0.40
2023-02-15T12:19:04.837Z,0.40
2023-02-15T12:20:22.907Z,0.40
2023-02-15T12:21:32.388Z,0.30
2023-02-15T12:22:37.748Z,0.30
2023-02-15T12:23:48.762Z,0.40
2023-02-15T12:24:54.153Z,0.40
2023-02-15T12:25:57.863Z,0.30
2023-02-15T12:27:04.660Z,0.30
2023-02-15T12:28:24.081Z,0.20
2023-02-15T12:29:32.234Z,0.30
2023-02-15T12:30:36.964Z,0.20
2023-02-15T12:31:42.866Z,0.40
2023-02-15T12:32:51.176Z,0.40
2023-02-15T12:33:55.448Z,0.50
2023-02-15T12:35:03.907Z,0.40
2023-02-15T12:36:13.484Z,0.50
2023-02-15T12:37:23.164Z,0.50
2023-02-15T12:38:26.663Z,1.10
2023-02-15T12:39:31.278Z,1.60
2023-02-15T12:40:38.476Z,2.00
2023-02-15T12:41:46.450Z,2.30
2023-02-15T12:42:49.426Z,2.60
2023-02-15T12:44:07.759Z,2.70
2023-02-15T12:45:27.561Z,2.80
2023-02-15T12:46:30.523Z,3.00
2023-02-15T12:47:33.637Z,3.10
2023-02-15T12:48:40.748Z,3.20
2023-02-15T12:49:47.659Z,3.20
2023-02-15T12:50:55.209Z,3.30
2023-02-15T12:52:00.474Z,3.30
2023-02-15T12:53:09.571Z,3.40
2023-02-15T12:54:23.522Z,3.50
2023-02-15T12:55:32.950Z,3.50
2023-02-15T12:56:34.868Z,3.60
2023-02-15T12:57:37.856Z,3.60
2023-02-15T12:58:41.913Z,3.60
2023-02-15T12:59:51.056Z,3.60
2023-02-15T13:01:13.006Z,3.70
2023-02-15T13:02:23.176Z,3.70
2023-02-15T13:03:26.232Z,3.60
2023-02-15T13:04:31.323Z,3.50
2023-02-15T13:05:37.937Z,3.60
2023-02-15T13:06:49.639Z,3.60
2023-02-15T13:07:55.914Z,3.60
2023-02-15T13:09:08.144Z,3.70
2023-02-15T13:10:25.529Z,3.70
2023-02-15T13:11:34.959Z,3.70
2023-02-15T13:12:36.936Z,3.70
2023-02-15T13:13:55.061Z,3.70
2023-02-15T13:14:58.612Z,3.70
2023-02-15T13:16:07.931Z,3.60
2023-02-15T13:17:15.145Z,3.70
2023-02-15T13:18:21.913Z,3.70
2023-02-15T13:19:31.558Z,3.70
2023-02-15T13:20:38.594Z,3.70
2023-02-15T13:21:46.084Z,3.70
2023-02-15T13:22:49.881Z,3.60
2023-02-15T13:23:58.324Z,3.60
2023-02-15T13:25:06.566Z,3.70
2023-02-15T13:26:16.492Z,3.80
2023-02-15T13:27:21.136Z,3.90
2023-02-15T13:28:29.171Z,4.00
2023-02-15T13:29:36.273Z,4.00
2023-02-15T13:30:44.169Z,4.10
2023-02-15T13:31:47.743Z,4.10
2023-02-15T13:32:54.323Z,4.10
2023-02-15T13:34:02.090Z,4.10
2023-02-15T13:35:08.131Z,4.10
2023-02-15T13:36:19.070Z,4.10
2023-02-15T13:37:28.149Z,4.10
2023-02-15T13:38:48.399Z,4.10
2023-02-15T13:39:56.110Z,4.10
2023-02-15T13:41:04.978Z,4.10
2023-02-15T13:42:22.040Z,4.00
2023-02-15T13:43:40.854Z,4.10
2023-02-15T13:45:04.538Z,4.10
2023-02-15T13:46:20.887Z,4.10
2023-02-15T13:47:33.689Z,4.10
2023-02-15T13:48:50.977Z,4.00
2023-02-15T13:50:16.042Z,4.00
2023-02-15T13:51:27.458Z,4.10
2023-02-15T13:52:30.800Z,4.10
2023-02-15T13:54:00.444Z,4.10
2023-02-15T13:55:23.237Z,4.20
2023-02-15T13:56:36.234Z,4.10
2023-02-15T13:57:54.346Z,4.00
2023-02-15T13:59:29.347Z,4.00
2023-02-15T14:00:42.978Z,3.90
2023-02-15T14:01:50.030Z,3.90
2023-02-15T14:03:20.890Z,3.90
2023-02-15T14:04:46.648Z,3.90
2023-02-15T14:06:03.300Z,4.00
2023-02-15T14:07:30.968Z,3.90
2023-02-15T14:08:45.752Z,4.00
2023-02-15T14:09:58.739Z,4.00
2023-02-15T14:11:07.312Z,4.00
2023-02-15T14:12:31.299Z,4.10
2023-02-15T14:14:07.766Z,4.10
2023-02-15T14:15:28.771Z,4.10
2023-02-15T14:16:41.923Z,4.20
2023-02-15T14:17:55.240Z,4.10
2023-02-15T14:19:06.214Z,4.20
2023-02-15T14:20:19.643Z,4.10
2023-02-15T14:21:29.900Z,4.20
2023-02-15T14:22:39.202Z,4.20
2023-02-15T14:23:54.505Z,4.10
2023-02-15T14:25:08.853Z,4.20
2023-02-15T14:26:18.593Z,4.10
2023-02-15T14:27:30.097Z,4.20
2023-02-15T14:28:40.338Z,4.10
2023-02-15T14:29:52.988Z,4.00
2023-02-15T14:30:58.381Z,4.00
2023-02-15T14:32:06.503Z,4.00
2023-02-15T14:33:17.507Z,4.00
2023-02-15T14:34:25.571Z,4.00
2023-02-15T14:35:32.350Z,4.00
2023-02-15T14:36:34.893Z,4.10
2023-02-15T14:37:45.199Z,4.10
2023-02-15T14:38:57.555Z,4.10
2023-02-15T14:40:22.127Z,4.10
2023-02-15T14:41:31.234Z,4.00
2023-02-15T14:42:42.413Z,4.00
2023-02-15T14:43:54.568Z,3.90
2023-02-15T14:45:04.010Z,3.90
2023-02-15T14:46:18.335Z,4.00
2023-02-15T14:47:24.840Z,4.00
2023-02-15T14:48:31.233Z,4.00
2023-02-15T14:49:38.797Z,4.00
2023-02-15T14:50:45.744Z,4.10
2023-02-15T14:51:59.914Z,4.10
2023-02-15T14:53:27.129Z,4.10
2023-02-15T14:54:56.677Z,4.20
2023-02-15T14:56:21.724Z,4.30